Terminal Aerodrome Forecast
Issued by NWS

Home | Current Version | Previous Version | Graphics & Text | Print | Product List | Glossary On
Versions: 1 2 3 4 5 6 7 8 9 10 11 12 13 14 15
000
FTUS43 KOAX 241733
TAFCDR
TAF
KCDR 241733Z 2418/2518 31010KT P6SM SCT060
     FM242000 33010KT P6SM VCTS BKN060CB
     FM250000 34005KT P6SM BKN100
     FM251000 VRB04KT P6SM BKN015
     FM251600 34006KT P6SM BKN250=

USA.gov is the U.S. government's official web portal to all federal, state and local government web resources and services.